EBAW

EBAW 041720Z 23006KT 200V280 CAVOK 23/07 Q1016 NOSIG

TAF TAF EBAW 251700Z 2518/2606 11007KT CAVOK PROB30 TEMPO 2518/2520 VRB15G30KT 3500 SHRA TSRA

EHWO

EHWO 041725Z AUTO 23006KT 170V250 9999 SCT064 OVC140 22/09 Q1015 BLU

TAF EHWO 040818Z 0409/0421 VRB03KT 9999 SCT030 BECMG 0411/0413 27006KT BECMG 0413/0415 22005KT

EBBL

EBBL 041725Z AUTO VRB02KT 9999 NCD 22/06 Q1016 BLU

TAF EBBL 041541Z 0419/0507 20004KT 9999 SCT100 BECMG 0420/0422 SKC

Always consult the official METAR resources.